sensor_id;sensor_type;location;lat;lon;timestamp;P1;durP1;ratioP1;P2;durP2;ratioP2
13171;SDS011;6651;53.200;10.432;2024-01-11T00:02:18;33.10;;;21.27;;
13171;SDS011;6651;53.200;10.432;2024-01-11T00:04:44;33.50;;;21.80;;
13171;SDS011;6651;53.200;10.432;2024-01-11T00:07:10;34.25;;;22.13;;
13171;SDS011;6651;53.200;10.432;2024-01-11T00:09:41;30.85;;;20.42;;
13171;SDS011;6651;53.200;10.432;2024-01-11T00:12:07;31.05;;;20.20;;
13171;SDS011;6651;53.200;10.432;2024-01-11T00:14:33;31.08;;;19.45;;
13171;SDS011;6651;53.200;10.432;2024-01-11T00:17:00;30.13;;;19.83;;
13171;SDS011;6651;53.200;10.432;2024-01-11T00:19:26;25.30;;;17.70;;
13171;SDS011;6651;53.200;10.432;2024-01-11T00:21:52;26.42;;;18.17;;
13171;SDS011;6651;53.200;10.432;2024-01-11T00:24:18;25.90;;;18.27;;
13171;SDS011;6651;53.200;10.432;2024-01-11T00:26:44;29.23;;;19.80;;
13171;SDS011;6651;53.200;10.432;2024-01-11T00:29:10;25.13;;;18.33;;
13171;SDS011;6651;53.200;10.432;2024-01-11T00:31:36;25.42;;;18.05;;
13171;SDS011;6651;53.200;10.432;2024-01-11T00:34:03;30.88;;;20.05;;
13171;SDS011;6651;53.200;10.432;2024-01-11T00:36:29;26.85;;;19.17;;
13171;SDS011;6651;53.200;10.432;2024-01-11T00:38:55;28.17;;;19.95;;
13171;SDS011;6651;53.200;10.432;2024-01-11T00:41:21;27.13;;;19.08;;
13171;SDS011;6651;53.200;10.432;2024-01-11T00:43:47;28.33;;;19.77;;
13171;SDS011;6651;53.200;10.432;2024-01-11T00:46:13;29.20;;;20.38;;
13171;SDS011;6651;53.200;10.432;2024-01-11T00:48:39;32.33;;;21.35;;
13171;SDS011;6651;53.200;10.432;2024-01-11T00:51:05;31.27;;;21.35;;
13171;SDS011;6651;53.200;10.432;2024-01-11T00:53:32;29.52;;;21.08;;
13171;SDS011;6651;53.200;10.432;2024-01-11T00:55:58;30.13;;;21.15;;
13171;SDS011;6651;53.200;10.432;2024-01-11T00:58:24;29.00;;;21.25;;
13171;SDS011;6651;53.200;10.432;2024-01-11T01:00:50;29.52;;;20.83;;
13171;SDS011;6651;53.200;10.432;2024-01-11T01:03:18;29.88;;;20.92;;
13171;SDS011;6651;53.200;10.432;2024-01-11T01:05:44;31.42;;;21.30;;
13171;SDS011;6651;53.200;10.432;2024-01-11T01:08:11;27.33;;;19.73;;
13171;SDS011;6651;53.200;10.432;2024-01-11T01:10:37;30.08;;;20.02;;
13171;SDS011;6651;53.200;10.432;2024-01-11T01:13:03;28.85;;;20.85;;
13171;SDS011;6651;53.200;10.432;2024-01-11T01:15:29;31.15;;;21.40;;
13171;SDS011;6651;53.200;10.432;2024-01-11T01:17:55;28.52;;;19.80;;
13171;SDS011;6651;53.200;10.432;2024-01-11T01:20:21;29.90;;;20.80;;
13171;SDS011;6651;53.200;10.432;2024-01-11T01:22:48;30.45;;;20.85;;
13171;SDS011;6651;53.200;10.432;2024-01-11T01:25:14;30.40;;;20.80;;
13171;SDS011;6651;53.200;10.432;2024-01-11T01:27:41;29.50;;;20.42;;
13171;SDS011;6651;53.200;10.432;2024-01-11T01:30:07;29.02;;;20.20;;
13171;SDS011;6651;53.200;10.432;2024-01-11T01:32:33;28.75;;;20.02;;
13171;SDS011;6651;53.200;10.432;2024-01-11T01:35:00;28.73;;;19.67;;
13171;SDS011;6651;53.200;10.432;2024-01-11T01:37:26;27.65;;;19.77;;
13171;SDS011;6651;53.200;10.432;2024-01-11T01:39:52;26.80;;;19.42;;
13171;SDS011;6651;53.200;10.432;2024-01-11T01:42:18;27.10;;;18.98;;
13171;SDS011;6651;53.200;10.432;2024-01-11T01:44:44;25.65;;;17.55;;
13171;SDS011;6651;53.200;10.432;2024-01-11T01:47:10;24.23;;;18.00;;
13171;SDS011;6651;53.200;10.432;2024-01-11T01:49:37;30.77;;;20.27;;
13171;SDS011;6651;53.200;10.432;2024-01-11T01:52:03;25.33;;;18.63;;
13171;SDS011;6651;53.200;10.432;2024-01-11T01:54:30;27.88;;;19.95;;
13171;SDS011;6651;53.200;10.432;2024-01-11T01:56:57;26.55;;;18.38;;
13171;SDS011;6651;53.200;10.432;2024-01-11T01:59:23;26.45;;;19.15;;
13171;SDS011;6651;53.200;10.432;2024-01-11T02:01:50;28.65;;;20.10;;
13171;SDS011;6651;53.200;10.432;2024-01-11T02:04:16;27.40;;;19.35;;
13171;SDS011;6651;53.200;10.432;2024-01-11T02:06:43;27.20;;;19.77;;
13171;SDS011;6651;53.200;10.432;2024-01-11T02:09:10;28.48;;;18.73;;
13171;SDS011;6651;53.200;10.432;2024-01-11T02:11:36;27.40;;;19.77;;
13171;SDS011;6651;53.200;10.432;2024-01-11T02:14:03;25.25;;;18.88;;
13171;SDS011;6651;53.200;10.432;2024-01-11T02:16:29;24.15;;;17.90;;
13171;SDS011;6651;53.200;10.432;2024-01-11T02:18:55;26.58;;;19.02;;
13171;SDS011;6651;53.200;10.432;2024-01-11T02:21:21;26.55;;;19.38;;
13171;SDS011;6651;53.200;10.432;2024-01-11T02:24:06;27.10;;;19.13;;
13171;SDS011;6651;53.200;10.432;2024-01-11T02:26:33;26.05;;;18.38;;
13171;SDS011;6651;53.200;10.432;2024-01-11T02:28:59;27.92;;;19.85;;
13171;SDS011;6651;53.200;10.432;2024-01-11T02:31:25;28.25;;;19.05;;
13171;SDS011;6651;53.200;10.432;2024-01-11T02:33:54;28.05;;;19.55;;
13171;SDS011;6651;53.200;10.432;2024-01-11T02:36:21;26.35;;;19.08;;
13171;SDS011;6651;53.200;10.432;2024-01-11T02:38:47;27.25;;;19.27;;
13171;SDS011;6651;53.200;10.432;2024-01-11T02:41:15;28.63;;;19.85;;
13171;SDS011;6651;53.200;10.432;2024-01-11T02:43:48;26.75;;;18.63;;
13171;SDS011;6651;53.200;10.432;2024-01-11T02:46:14;26.73;;;18.90;;
13171;SDS011;6651;53.200;10.432;2024-01-11T02:48:41;26.63;;;18.13;;
13171;SDS011;6651;53.200;10.432;2024-01-11T02:51:07;25.65;;;18.65;;
13171;SDS011;6651;53.200;10.432;2024-01-11T02:53:33;26.98;;;19.20;;
13171;SDS011;6651;53.200;10.432;2024-01-11T02:56:00;26.73;;;19.05;;
13171;SDS011;6651;53.200;10.432;2024-01-11T02:58:26;26.98;;;19.13;;
13171;SDS011;6651;53.200;10.432;2024-01-11T03:00:52;25.38;;;18.15;;
13171;SDS011;6651;53.200;10.432;2024-01-11T03:03:18;24.40;;;18.38;;
13171;SDS011;6651;53.200;10.432;2024-01-11T03:05:44;26.13;;;18.67;;
13171;SDS011;6651;53.200;10.432;2024-01-11T03:08:10;27.02;;;18.67;;
13171;SDS011;6651;53.200;10.432;2024-01-11T03:10:39;25.30;;;18.10;;
13171;SDS011;6651;53.200;10.432;2024-01-11T03:13:05;25.65;;;17.45;;
13171;SDS011;6651;53.200;10.432;2024-01-11T03:15:31;27.40;;;19.90;;
13171;SDS011;6651;53.200;10.432;2024-01-11T03:17:57;23.98;;;18.55;;
13171;SDS011;6651;53.200;10.432;2024-01-11T03:20:23;25.83;;;18.38;;
13171;SDS011;6651;53.200;10.432;2024-01-11T03:22:52;25.77;;;19.00;;
13171;SDS011;6651;53.200;10.432;2024-01-11T03:25:18;25.25;;;18.48;;
13171;SDS011;6651;53.200;10.432;2024-01-11T03:27:44;27.45;;;19.80;;
13171;SDS011;6651;53.200;10.432;2024-01-11T03:30:11;24.90;;;18.55;;
13171;SDS011;6651;53.200;10.432;2024-01-11T03:32:37;26.27;;;19.27;;
13171;SDS011;6651;53.200;10.432;2024-01-11T03:35:05;27.48;;;19.85;;
13171;SDS011;6651;53.200;10.432;2024-01-11T03:37:31;27.13;;;19.20;;
13171;SDS011;6651;53.200;10.432;2024-01-11T03:39:57;24.70;;;18.17;;
13171;SDS011;6651;53.200;10.432;2024-01-11T03:42:23;26.50;;;19.77;;
13171;SDS011;6651;53.200;10.432;2024-01-11T03:44:49;28.02;;;20.30;;
13171;SDS011;6651;53.200;10.432;2024-01-11T03:47:15;29.38;;;21.17;;
13171;SDS011;6651;53.200;10.432;2024-01-11T03:49:41;26.55;;;19.30;;
13171;SDS011;6651;53.200;10.432;2024-01-11T03:52:07;26.25;;;19.70;;
13171;SDS011;6651;53.200;10.432;2024-01-11T03:54:33;28.15;;;20.33;;
13171;SDS011;6651;53.200;10.432;2024-01-11T03:56:59;27.13;;;19.30;;
13171;SDS011;6651;53.200;10.432;2024-01-11T03:59:25;27.20;;;20.35;;
13171;SDS011;6651;53.200;10.432;2024-01-11T04:01:51;27.70;;;20.98;;
13171;SDS011;6651;53.200;10.432;2024-01-11T04:04:17;28.50;;;19.77;;
13171;SDS011;6651;53.200;10.432;2024-01-11T04:06:43;28.25;;;20.25;;
13171;SDS011;6651;53.200;10.432;2024-01-11T04:09:10;30.45;;;20.63;;
13171;SDS011;6651;53.200;10.432;2024-01-11T04:11:36;30.23;;;21.02;;
13171;SDS011;6651;53.200;10.432;2024-01-11T04:14:02;31.20;;;21.00;;
13171;SDS011;6651;53.200;10.432;2024-01-11T04:16:28;27.80;;;20.15;;
13171;SDS011;6651;53.200;10.432;2024-01-11T04:18:54;30.55;;;20.90;;
13171;SDS011;6651;53.200;10.432;2024-01-11T04:21:23;28.95;;;20.35;;
13171;SDS011;6651;53.200;10.432;2024-01-11T04:23:50;32.72;;;22.42;;
13171;SDS011;6651;53.200;10.432;2024-01-11T04:26:16;30.80;;;20.73;;
13171;SDS011;6651;53.200;10.432;2024-01-11T04:28:44;29.05;;;20.48;;
13171;SDS011;6651;53.200;10.432;2024-01-11T04:31:10;28.20;;;19.73;;
13171;SDS011;6651;53.200;10.432;2024-01-11T04:33:39;31.10;;;20.85;;
13171;SDS011;6651;53.200;10.432;2024-01-11T04:36:05;31.92;;;21.10;;
13171;SDS011;6651;53.200;10.432;2024-01-11T04:38:31;32.55;;;21.40;;
13171;SDS011;6651;53.200;10.432;2024-01-11T04:40:57;33.50;;;22.33;;
13171;SDS011;6651;53.200;10.432;2024-01-11T04:43:23;32.70;;;22.27;;
13171;SDS011;6651;53.200;10.432;2024-01-11T04:45:49;32.03;;;21.13;;
13171;SDS011;6651;53.200;10.432;2024-01-11T04:48:15;33.10;;;21.88;;
13171;SDS011;6651;53.200;10.432;2024-01-11T04:50:42;33.90;;;22.30;;
13171;SDS011;6651;53.200;10.432;2024-01-11T04:53:08;34.28;;;23.67;;
13171;SDS011;6651;53.200;10.432;2024-01-11T04:55:34;31.95;;;22.08;;
13171;SDS011;6651;53.200;10.432;2024-01-11T04:58:00;34.75;;;21.98;;
13171;SDS011;6651;53.200;10.432;2024-01-11T05:00:26;38.65;;;23.60;;
13171;SDS011;6651;53.200;10.432;2024-01-11T05:02:52;34.33;;;22.30;;
13171;SDS011;6651;53.200;10.432;2024-01-11T05:05:18;37.67;;;24.60;;
13171;SDS011;6651;53.200;10.432;2024-01-11T05:07:44;37.22;;;24.05;;
13171;SDS011;6651;53.200;10.432;2024-01-11T05:10:10;38.33;;;23.58;;
13171;SDS011;6651;53.200;10.432;2024-01-11T05:12:36;37.00;;;23.90;;
13171;SDS011;6651;53.200;10.432;2024-01-11T05:15:03;38.55;;;24.08;;
13171;SDS011;6651;53.200;10.432;2024-01-11T05:17:29;37.35;;;25.17;;
13171;SDS011;6651;53.200;10.432;2024-01-11T05:19:55;38.83;;;24.60;;
13171;SDS011;6651;53.200;10.432;2024-01-11T05:22:21;40.95;;;23.77;;
13171;SDS011;6651;53.200;10.432;2024-01-11T05:24:47;37.85;;;24.52;;
13171;SDS011;6651;53.200;10.432;2024-01-11T05:27:13;35.85;;;24.08;;
13171;SDS011;6651;53.200;10.432;2024-01-11T05:29:39;36.58;;;23.98;;
13171;SDS011;6651;53.200;10.432;2024-01-11T05:32:05;36.90;;;24.40;;
13171;SDS011;6651;53.200;10.432;2024-01-11T05:34:31;39.80;;;25.50;;
13171;SDS011;6651;53.200;10.432;2024-01-11T05:36:57;38.65;;;24.92;;
13171;SDS011;6651;53.200;10.432;2024-01-11T05:39:23;38.40;;;25.20;;
13171;SDS011;6651;53.200;10.432;2024-01-11T05:41:49;38.22;;;24.58;;
13171;SDS011;6651;53.200;10.432;2024-01-11T05:44:15;38.22;;;24.70;;
13171;SDS011;6651;53.200;10.432;2024-01-11T05:46:41;38.85;;;25.13;;
13171;SDS011;6651;53.200;10.432;2024-01-11T05:49:07;42.55;;;26.35;;
13171;SDS011;6651;53.200;10.432;2024-01-11T05:51:33;39.88;;;26.25;;
13171;SDS011;6651;53.200;10.432;2024-01-11T05:53:59;44.10;;;27.13;;
13171;SDS011;6651;53.200;10.432;2024-01-11T05:56:25;42.22;;;27.25;;
13171;SDS011;6651;53.200;10.432;2024-01-11T05:58:51;41.35;;;26.08;;
13171;SDS011;6651;53.200;10.432;2024-01-11T06:01:17;42.35;;;26.60;;
13171;SDS011;6651;53.200;10.432;2024-01-11T06:03:43;45.17;;;28.13;;
13171;SDS011;6651;53.200;10.432;2024-01-11T06:06:09;41.40;;;27.90;;
13171;SDS011;6651;53.200;10.432;2024-01-11T06:08:36;42.58;;;27.33;;
13171;SDS011;6651;53.200;10.432;2024-01-11T06:11:02;42.17;;;27.33;;
13171;SDS011;6651;53.200;10.432;2024-01-11T06:13:29;43.03;;;28.02;;
13171;SDS011;6651;53.200;10.432;2024-01-11T06:15:55;45.58;;;27.92;;
13171;SDS011;6651;53.200;10.432;2024-01-11T06:18:21;46.97;;;29.15;;
13171;SDS011;6651;53.200;10.432;2024-01-11T06:20:47;43.20;;;28.55;;
13171;SDS011;6651;53.200;10.432;2024-01-11T06:23:13;45.78;;;28.55;;
13171;SDS011;6651;53.200;10.432;2024-01-11T06:25:39;48.67;;;29.92;;
13171;SDS011;6651;53.200;10.432;2024-01-11T06:28:05;46.40;;;29.00;;
13171;SDS011;6651;53.200;10.432;2024-01-11T06:30:32;44.63;;;28.77;;
13171;SDS011;6651;53.200;10.432;2024-01-11T06:32:58;47.58;;;29.77;;
13171;SDS011;6651;53.200;10.432;2024-01-11T06:35:24;45.25;;;28.38;;
13171;SDS011;6651;53.200;10.432;2024-01-11T06:37:49;47.70;;;28.60;;
13171;SDS011;6651;53.200;10.432;2024-01-11T06:40:16;51.53;;;29.58;;
13171;SDS011;6651;53.200;10.432;2024-01-11T06:42:44;48.85;;;29.17;;
13171;SDS011;6651;53.200;10.432;2024-01-11T06:45:10;49.83;;;29.08;;
13171;SDS011;6651;53.200;10.432;2024-01-11T06:47:36;48.88;;;30.42;;
13171;SDS011;6651;53.200;10.432;2024-01-11T06:50:02;55.75;;;32.30;;
13171;SDS011;6651;53.200;10.432;2024-01-11T06:52:28;51.88;;;30.50;;
13171;SDS011;6651;53.200;10.432;2024-01-11T06:54:54;53.15;;;30.08;;
13171;SDS011;6651;53.200;10.432;2024-01-11T06:57:20;53.28;;;30.48;;
13171;SDS011;6651;53.200;10.432;2024-01-11T06:59:46;54.53;;;31.38;;
13171;SDS011;6651;53.200;10.432;2024-01-11T07:02:13;56.72;;;32.28;;
13171;SDS011;6651;53.200;10.432;2024-01-11T07:04:43;52.28;;;30.75;;
13171;SDS011;6651;53.200;10.432;2024-01-11T07:07:09;57.28;;;32.33;;
13171;SDS011;6651;53.200;10.432;2024-01-11T07:09:37;55.58;;;31.65;;
13171;SDS011;6651;53.200;10.432;2024-01-11T07:12:03;62.47;;;33.08;;
13171;SDS011;6651;53.200;10.432;2024-01-11T07:14:29;54.85;;;31.95;;
13171;SDS011;6651;53.200;10.432;2024-01-11T07:16:55;60.15;;;32.67;;
13171;SDS011;6651;53.200;10.432;2024-01-11T07:19:21;62.80;;;32.88;;
13171;SDS011;6651;53.200;10.432;2024-01-11T07:21:47;61.60;;;33.60;;
13171;SDS011;6651;53.200;10.432;2024-01-11T07:24:13;64.22;;;35.97;;
13171;SDS011;6651;53.200;10.432;2024-01-11T07:26:40;63.22;;;34.78;;
13171;SDS011;6651;53.200;10.432;2024-01-11T07:29:06;62.17;;;36.42;;
13171;SDS011;6651;53.200;10.432;2024-01-11T07:31:32;64.35;;;35.63;;
13171;SDS011;6651;53.200;10.432;2024-01-11T07:33:59;63.22;;;35.35;;
13171;SDS011;6651;53.200;10.432;2024-01-11T07:36:25;60.97;;;33.75;;
13171;SDS011;6651;53.200;10.432;2024-01-11T07:38:51;61.22;;;34.15;;
13171;SDS011;6651;53.200;10.432;2024-01-11T07:41:17;62.70;;;34.03;;
13171;SDS011;6651;53.200;10.432;2024-01-11T07:43:43;56.55;;;32.58;;
13171;SDS011;6651;53.200;10.432;2024-01-11T07:46:09;60.88;;;32.72;;
13171;SDS011;6651;53.200;10.432;2024-01-11T07:48:35;62.97;;;33.45;;
13171;SDS011;6651;53.200;10.432;2024-01-11T07:51:01;63.40;;;35.03;;
13171;SDS011;6651;53.200;10.432;2024-01-11T07:53:27;61.42;;;33.15;;
13171;SDS011;6651;53.200;10.432;2024-01-11T07:55:53;61.75;;;34.03;;
13171;SDS011;6651;53.200;10.432;2024-01-11T07:58:19;62.72;;;32.65;;
13171;SDS011;6651;53.200;10.432;2024-01-11T08:00:46;58.80;;;34.13;;
13171;SDS011;6651;53.200;10.432;2024-01-11T08:03:12;62.60;;;33.85;;
13171;SDS011;6651;53.200;10.432;2024-01-11T08:05:39;65.03;;;34.58;;
13171;SDS011;6651;53.200;10.432;2024-01-11T08:08:05;61.20;;;34.60;;
13171;SDS011;6651;53.200;10.432;2024-01-11T08:10:31;59.35;;;33.83;;
13171;SDS011;6651;53.200;10.432;2024-01-11T08:12:57;61.72;;;34.63;;
13171;SDS011;6651;53.200;10.432;2024-01-11T08:15:24;56.63;;;32.53;;
13171;SDS011;6651;53.200;10.432;2024-01-11T08:17:50;57.95;;;32.33;;
13171;SDS011;6651;53.200;10.432;2024-01-11T08:20:16;58.17;;;31.50;;
13171;SDS011;6651;53.200;10.432;2024-01-11T08:22:42;54.75;;;31.00;;
13171;SDS011;6651;53.200;10.432;2024-01-11T08:25:09;55.92;;;32.00;;
13171;SDS011;6651;53.200;10.432;2024-01-11T08:27:35;58.42;;;32.45;;
13171;SDS011;6651;53.200;10.432;2024-01-11T08:30:01;54.97;;;30.88;;
13171;SDS011;6651;53.200;10.432;2024-01-11T08:32:28;53.47;;;30.20;;
13171;SDS011;6651;53.200;10.432;2024-01-11T08:34:54;57.78;;;32.00;;
13171;SDS011;6651;53.200;10.432;2024-01-11T08:37:20;57.60;;;32.15;;
13171;SDS011;6651;53.200;10.432;2024-01-11T08:39:46;55.95;;;31.52;;
13171;SDS011;6651;53.200;10.432;2024-01-11T08:42:12;52.30;;;29.17;;
13171;SDS011;6651;53.200;10.432;2024-01-11T08:44:43;53.30;;;30.13;;
13171;SDS011;6651;53.200;10.432;2024-01-11T08:47:09;54.38;;;30.00;;
13171;SDS011;6651;53.200;10.432;2024-01-11T08:49:38;56.15;;;29.80;;
13171;SDS011;6651;53.200;10.432;2024-01-11T08:52:05;55.20;;;30.73;;
13171;SDS011;6651;53.200;10.432;2024-01-11T08:54:31;56.00;;;30.30;;
13171;SDS011;6651;53.200;10.432;2024-01-11T08:57:00;53.45;;;29.63;;
13171;SDS011;6651;53.200;10.432;2024-01-11T08:59:26;56.08;;;29.85;;
13171;SDS011;6651;53.200;10.432;2024-01-11T09:01:52;49.90;;;28.02;;
13171;SDS011;6651;53.200;10.432;2024-01-11T09:04:18;51.72;;;28.83;;
13171;SDS011;6651;53.200;10.432;2024-01-11T09:06:45;54.30;;;29.25;;
13171;SDS011;6651;53.200;10.432;2024-01-11T09:09:11;52.65;;;28.83;;
13171;SDS011;6651;53.200;10.432;2024-01-11T09:11:38;54.25;;;29.95;;
13171;SDS011;6651;53.200;10.432;2024-01-11T09:14:06;52.60;;;29.15;;
13171;SDS011;6651;53.200;10.432;2024-01-11T09:16:32;53.30;;;29.45;;
13171;SDS011;6651;53.200;10.432;2024-01-11T09:18:58;50.17;;;28.48;;
13171;SDS011;6651;53.200;10.432;2024-01-11T09:21:25;54.78;;;29.10;;
13171;SDS011;6651;53.200;10.432;2024-01-11T09:23:51;56.92;;;29.00;;
13171;SDS011;6651;53.200;10.432;2024-01-11T09:26:17;55.58;;;29.95;;
13171;SDS011;6651;53.200;10.432;2024-01-11T09:28:43;51.05;;;27.77;;
13171;SDS011;6651;53.200;10.432;2024-01-11T09:31:10;52.60;;;27.40;;
13171;SDS011;6651;53.200;10.432;2024-01-11T09:33:36;50.00;;;27.05;;
13171;SDS011;6651;53.200;10.432;2024-01-11T09:36:02;52.25;;;25.83;;
13171;SDS011;6651;53.200;10.432;2024-01-11T09:38:29;48.15;;;25.17;;
13171;SDS011;6651;53.200;10.432;2024-01-11T09:41:16;59.97;;;27.27;;
13171;SDS011;6651;53.200;10.432;2024-01-11T09:43:41;47.45;;;25.65;;
13171;SDS011;6651;53.200;10.432;2024-01-11T09:46:08;46.55;;;25.23;;
13171;SDS011;6651;53.200;10.432;2024-01-11T09:48:36;46.30;;;23.77;;
13171;SDS011;6651;53.200;10.432;2024-01-11T09:51:03;41.55;;;22.00;;
13171;SDS011;6651;53.200;10.432;2024-01-11T09:53:33;36.30;;;19.80;;
13171;SDS011;6651;53.200;10.432;2024-01-11T09:55:59;34.38;;;19.35;;
13171;SDS011;6651;53.200;10.432;2024-01-11T09:58:26;41.38;;;21.80;;
13171;SDS011;6651;53.200;10.432;2024-01-11T10:00:53;38.63;;;20.38;;
13171;SDS011;6651;53.200;10.432;2024-01-11T10:03:20;38.33;;;20.80;;
13171;SDS011;6651;53.200;10.432;2024-01-11T10:05:46;37.65;;;20.20;;
13171;SDS011;6651;53.200;10.432;2024-01-11T10:08:16;39.13;;;21.50;;
13171;SDS011;6651;53.200;10.432;2024-01-11T10:10:43;33.45;;;18.42;;
13171;SDS011;6651;53.200;10.432;2024-01-11T10:13:09;37.10;;;19.08;;
13171;SDS011;6651;53.200;10.432;2024-01-11T10:15:36;34.20;;;18.77;;
13171;SDS011;6651;53.200;10.432;2024-01-11T10:18:02;37.17;;;20.90;;
13171;SDS011;6651;53.200;10.432;2024-01-11T10:20:28;35.53;;;20.00;;
13171;SDS011;6651;53.200;10.432;2024-01-11T10:22:56;38.38;;;19.27;;
13171;SDS011;6651;53.200;10.432;2024-01-11T10:25:22;42.78;;;21.73;;
13171;SDS011;6651;53.200;10.432;2024-01-11T10:27:48;43.40;;;22.17;;
13171;SDS011;6651;53.200;10.432;2024-01-11T10:30:15;38.47;;;21.20;;
13171;SDS011;6651;53.200;10.432;2024-01-11T10:32:44;40.67;;;21.88;;
13171;SDS011;6651;53.200;10.432;2024-01-11T10:35:11;44.78;;;22.63;;
13171;SDS011;6651;53.200;10.432;2024-01-11T10:37:37;43.10;;;23.23;;
13171;SDS011;6651;53.200;10.432;2024-01-11T10:40:07;44.28;;;24.25;;
13171;SDS011;6651;53.200;10.432;2024-01-11T10:42:44;40.80;;;22.42;;
13171;SDS011;6651;53.200;10.432;2024-01-11T10:45:12;44.55;;;23.70;;
13171;SDS011;6651;53.200;10.432;2024-01-11T10:47:39;44.70;;;23.38;;
13171;SDS011;6651;53.200;10.432;2024-01-11T10:50:08;41.58;;;23.38;;
13171;SDS011;6651;53.200;10.432;2024-01-11T10:52:36;42.60;;;23.15;;
13171;SDS011;6651;53.200;10.432;2024-01-11T10:55:02;41.28;;;22.98;;
13171;SDS011;6651;53.200;10.432;2024-01-11T10:57:29;40.63;;;22.38;;
13171;SDS011;6651;53.200;10.432;2024-01-11T10:59:55;43.47;;;23.08;;
13171;SDS011;6651;53.200;10.432;2024-01-11T11:02:22;42.53;;;23.88;;
13171;SDS011;6651;53.200;10.432;2024-01-11T11:04:48;43.92;;;24.95;;
13171;SDS011;6651;53.200;10.432;2024-01-11T11:07:17;42.58;;;25.65;;
13171;SDS011;6651;53.200;10.432;2024-01-11T11:09:44;46.08;;;25.52;;
13171;SDS011;6651;53.200;10.432;2024-01-11T11:12:10;42.85;;;23.50;;
13171;SDS011;6651;53.200;10.432;2024-01-11T11:14:36;41.42;;;22.75;;
13171;SDS011;6651;53.200;10.432;2024-01-11T11:17:04;39.03;;;21.42;;
13171;SDS011;6651;53.200;10.432;2024-01-11T11:19:31;37.95;;;21.05;;
13171;SDS011;6651;53.200;10.432;2024-01-11T11:21:57;42.00;;;22.52;;
13171;SDS011;6651;53.200;10.432;2024-01-11T11:24:23;41.45;;;22.63;;
13171;SDS011;6651;53.200;10.432;2024-01-11T11:26:49;40.65;;;23.27;;
13171;SDS011;6651;53.200;10.432;2024-01-11T11:29:15;38.55;;;21.48;;
13171;SDS011;6651;53.200;10.432;2024-01-11T11:31:42;41.00;;;22.10;;
13171;SDS011;6651;53.200;10.432;2024-01-11T11:34:12;39.55;;;21.95;;
13171;SDS011;6651;53.200;10.432;2024-01-11T11:36:39;41.15;;;22.70;;
13171;SDS011;6651;53.200;10.432;2024-01-11T11:39:09;38.05;;;21.80;;
13171;SDS011;6651;53.200;10.432;2024-01-11T11:41:36;42.85;;;22.85;;
13171;SDS011;6651;53.200;10.432;2024-01-11T11:44:04;40.58;;;23.15;;
13171;SDS011;6651;53.200;10.432;2024-01-11T11:46:31;38.78;;;21.65;;
13171;SDS011;6651;53.200;10.432;2024-01-11T11:48:58;41.28;;;22.92;;
13171;SDS011;6651;53.200;10.432;2024-01-11T11:51:25;46.03;;;23.45;;
13171;SDS011;6651;53.200;10.432;2024-01-11T11:53:51;39.45;;;21.85;;
13171;SDS011;6651;53.200;10.432;2024-01-11T11:56:19;38.55;;;21.38;;
13171;SDS011;6651;53.200;10.432;2024-01-11T11:58:45;40.53;;;20.90;;
13171;SDS011;6651;53.200;10.432;2024-01-11T12:01:13;38.25;;;20.83;;
13171;SDS011;6651;53.200;10.432;2024-01-11T12:03:40;38.28;;;20.85;;
13171;SDS011;6651;53.200;10.432;2024-01-11T12:06:11;38.42;;;20.13;;
13171;SDS011;6651;53.200;10.432;2024-01-11T12:08:37;34.80;;;18.30;;
13171;SDS011;6651;53.200;10.432;2024-01-11T12:11:07;36.97;;;19.75;;
13171;SDS011;6651;53.200;10.432;2024-01-11T12:13:33;36.50;;;19.58;;
13171;SDS011;6651;53.200;10.432;2024-01-11T12:15:59;36.95;;;19.38;;
13171;SDS011;6651;53.200;10.432;2024-01-11T12:18:25;35.83;;;17.90;;
13171;SDS011;6651;53.200;10.432;2024-01-11T12:20:51;34.67;;;18.48;;
13171;SDS011;6651;53.200;10.432;2024-01-11T12:23:20;31.65;;;17.75;;
13171;SDS011;6651;53.200;10.432;2024-01-11T12:25:46;33.50;;;17.80;;
13171;SDS011;6651;53.200;10.432;2024-01-11T12:28:12;31.13;;;16.83;;
13171;SDS011;6651;53.200;10.432;2024-01-11T12:30:39;34.35;;;17.60;;
13171;SDS011;6651;53.200;10.432;2024-01-11T12:33:05;31.75;;;17.17;;
13171;SDS011;6651;53.200;10.432;2024-01-11T12:35:31;32.35;;;17.83;;
13171;SDS011;6651;53.200;10.432;2024-01-11T12:38:01;32.25;;;17.00;;
13171;SDS011;6651;53.200;10.432;2024-01-11T12:40:35;30.10;;;16.35;;
13171;SDS011;6651;53.200;10.432;2024-01-11T12:43:05;37.38;;;18.40;;
13171;SDS011;6651;53.200;10.432;2024-01-11T12:45:32;30.92;;;16.65;;
13171;SDS011;6651;53.200;10.432;2024-01-11T12:47:59;28.70;;;16.73;;
13171;SDS011;6651;53.200;10.432;2024-01-11T12:50:25;32.47;;;17.10;;
13171;SDS011;6651;53.200;10.432;2024-01-11T12:53:05;32.45;;;17.63;;
13171;SDS011;6651;53.200;10.432;2024-01-11T12:55:32;27.77;;;15.98;;
13171;SDS011;6651;53.200;10.432;2024-01-11T12:58:06;31.42;;;17.38;;
13171;SDS011;6651;53.200;10.432;2024-01-11T13:00:34;31.67;;;16.77;;
13171;SDS011;6651;53.200;10.432;2024-01-11T13:03:00;29.20;;;16.65;;
13171;SDS011;6651;53.200;10.432;2024-01-11T13:05:26;33.13;;;16.45;;
13171;SDS011;6651;53.200;10.432;2024-01-11T13:07:52;33.80;;;18.15;;
13171;SDS011;6651;53.200;10.432;2024-01-11T13:10:18;31.88;;;17.10;;
13171;SDS011;6651;53.200;10.432;2024-01-11T13:12:44;30.88;;;18.35;;
13171;SDS011;6651;53.200;10.432;2024-01-11T13:15:11;28.58;;;16.98;;
13171;SDS011;6651;53.200;10.432;2024-01-11T13:17:37;33.28;;;17.35;;
13171;SDS011;6651;53.200;10.432;2024-01-11T13:20:03;31.95;;;18.08;;
13171;SDS011;6651;53.200;10.432;2024-01-11T13:22:29;30.88;;;17.33;;
13171;SDS011;6651;53.200;10.432;2024-01-11T13:24:55;27.50;;;15.90;;
13171;SDS011;6651;53.200;10.432;2024-01-11T13:27:21;32.80;;;18.80;;
13171;SDS011;6651;53.200;10.432;2024-01-11T13:29:47;29.80;;;17.70;;
13171;SDS011;6651;53.200;10.432;2024-01-11T13:32:13;34.65;;;19.00;;
13171;SDS011;6651;53.200;10.432;2024-01-11T13:34:40;33.90;;;18.80;;
13171;SDS011;6651;53.200;10.432;2024-01-11T13:37:07;35.10;;;17.83;;
13171;SDS011;6651;53.200;10.432;2024-01-11T13:39:33;32.60;;;18.45;;
13171;SDS011;6651;53.200;10.432;2024-01-11T13:41:59;29.63;;;17.08;;
13171;SDS011;6651;53.200;10.432;2024-01-11T13:44:25;28.48;;;16.88;;
13171;SDS011;6651;53.200;10.432;2024-01-11T13:46:51;33.13;;;18.02;;
13171;SDS011;6651;53.200;10.432;2024-01-11T13:49:17;32.63;;;18.30;;
13171;SDS011;6651;53.200;10.432;2024-01-11T13:51:43;29.55;;;17.50;;
13171;SDS011;6651;53.200;10.432;2024-01-11T13:54:10;32.83;;;17.40;;
13171;SDS011;6651;53.200;10.432;2024-01-11T13:56:36;33.47;;;19.10;;
13171;SDS011;6651;53.200;10.432;2024-01-11T13:59:02;34.80;;;19.10;;
13171;SDS011;6651;53.200;10.432;2024-01-11T14:01:28;37.22;;;18.95;;
13171;SDS011;6651;53.200;10.432;2024-01-11T14:03:54;31.55;;;17.20;;
13171;SDS011;6651;53.200;10.432;2024-01-11T14:06:20;31.85;;;18.92;;
13171;SDS011;6651;53.200;10.432;2024-01-11T14:08:46;34.17;;;19.75;;
13171;SDS011;6651;53.200;10.432;2024-01-11T14:11:12;36.22;;;19.48;;
13171;SDS011;6651;53.200;10.432;2024-01-11T14:13:38;33.15;;;20.02;;
13171;SDS011;6651;53.200;10.432;2024-01-11T14:16:05;38.97;;;20.33;;
13171;SDS011;6651;53.200;10.432;2024-01-11T14:18:31;33.90;;;18.92;;